sensor_id;sensor_type;location;lat;lon;timestamp;P1;durP1;ratioP1;P2;durP2;ratioP2
51489;SDS011;57752;53.574;9.736;2022-11-12T00:01:44;41.80;;;21.63;;
51489;SDS011;57752;53.574;9.736;2022-11-12T00:06:44;39.55;;;20.10;;
51489;SDS011;57752;53.574;9.736;2022-11-12T00:11:44;35.08;;;19.60;;
51489;SDS011;57752;53.574;9.736;2022-11-12T00:16:45;32.53;;;17.35;;
51489;SDS011;57752;53.574;9.736;2022-11-12T00:21:45;34.77;;;17.33;;
51489;SDS011;57752;53.574;9.736;2022-11-12T00:26:45;34.03;;;18.00;;
51489;SDS011;57752;53.574;9.736;2022-11-12T00:31:45;34.03;;;17.50;;
51489;SDS011;57752;53.574;9.736;2022-11-12T00:36:46;27.20;;;14.07;;
51489;SDS011;57752;53.574;9.736;2022-11-12T00:41:46;28.17;;;14.00;;
51489;SDS011;57752;53.574;9.736;2022-11-12T00:46:46;31.02;;;14.50;;
51489;SDS011;57752;53.574;9.736;2022-11-12T00:51:47;29.80;;;15.57;;
51489;SDS011;57752;53.574;9.736;2022-11-12T00:56:48;30.05;;;15.15;;
51489;SDS011;57752;53.574;9.736;2022-11-12T01:01:48;28.37;;;14.70;;
51489;SDS011;57752;53.574;9.736;2022-11-12T01:06:49;23.88;;;11.90;;
51489;SDS011;57752;53.574;9.736;2022-11-12T01:11:49;26.75;;;15.35;;
51489;SDS011;57752;53.574;9.736;2022-11-12T01:16:49;25.92;;;12.48;;
51489;SDS011;57752;53.574;9.736;2022-11-12T01:21:49;26.80;;;14.68;;
51489;SDS011;57752;53.574;9.736;2022-11-12T01:26:50;21.98;;;11.02;;
51489;SDS011;57752;53.574;9.736;2022-11-12T01:31:50;26.80;;;15.75;;
51489;SDS011;57752;53.574;9.736;2022-11-12T01:36:50;23.70;;;13.88;;
51489;SDS011;57752;53.574;9.736;2022-11-12T01:41:51;22.20;;;12.10;;
51489;SDS011;57752;53.574;9.736;2022-11-12T01:47:02;28.30;;;14.63;;
51489;SDS011;57752;53.574;9.736;2022-11-12T01:57:28;25.08;;;15.05;;
51489;SDS011;57752;53.574;9.736;2022-11-12T02:02:30;25.23;;;13.57;;
51489;SDS011;57752;53.574;9.736;2022-11-12T02:07:32;23.45;;;13.07;;
51489;SDS011;57752;53.574;9.736;2022-11-12T02:12:33;23.55;;;13.65;;
51489;SDS011;57752;53.574;9.736;2022-11-12T02:17:52;27.65;;;14.35;;
51489;SDS011;57752;53.574;9.736;2022-11-12T02:22:52;29.40;;;15.20;;
51489;SDS011;57752;53.574;9.736;2022-11-12T02:27:53;20.13;;;11.15;;
51489;SDS011;57752;53.574;9.736;2022-11-12T02:32:55;23.50;;;12.80;;
51489;SDS011;57752;53.574;9.736;2022-11-12T02:37:55;23.15;;;13.18;;
51489;SDS011;57752;53.574;9.736;2022-11-12T02:42:55;29.00;;;15.60;;
51489;SDS011;57752;53.574;9.736;2022-11-12T02:47:55;24.63;;;13.85;;
51489;SDS011;57752;53.574;9.736;2022-11-12T02:52:56;28.67;;;15.83;;
51489;SDS011;57752;53.574;9.736;2022-11-12T02:57:57;33.67;;;18.25;;
51489;SDS011;57752;53.574;9.736;2022-11-12T03:02:57;31.75;;;19.17;;
51489;SDS011;57752;53.574;9.736;2022-11-12T03:07:58;29.58;;;16.65;;
51489;SDS011;57752;53.574;9.736;2022-11-12T03:13:00;29.42;;;16.00;;
51489;SDS011;57752;53.574;9.736;2022-11-12T03:18:01;37.05;;;20.55;;
51489;SDS011;57752;53.574;9.736;2022-11-12T03:23:03;40.03;;;22.00;;
51489;SDS011;57752;53.574;9.736;2022-11-12T03:28:05;40.20;;;20.40;;
51489;SDS011;57752;53.574;9.736;2022-11-12T03:33:08;36.80;;;20.27;;
51489;SDS011;57752;53.574;9.736;2022-11-12T03:38:09;35.03;;;19.70;;
51489;SDS011;57752;53.574;9.736;2022-11-12T03:43:09;35.03;;;18.03;;
51489;SDS011;57752;53.574;9.736;2022-11-12T03:48:10;35.73;;;19.90;;
51489;SDS011;57752;53.574;9.736;2022-11-12T03:53:10;33.72;;;16.30;;
51489;SDS011;57752;53.574;9.736;2022-11-12T03:58:10;34.85;;;18.58;;
51489;SDS011;57752;53.574;9.736;2022-11-12T04:03:10;41.67;;;21.20;;
51489;SDS011;57752;53.574;9.736;2022-11-12T04:08:12;32.92;;;15.98;;
51489;SDS011;57752;53.574;9.736;2022-11-12T04:13:35;38.28;;;21.58;;
51489;SDS011;57752;53.574;9.736;2022-11-12T04:18:37;40.80;;;20.15;;
51489;SDS011;57752;53.574;9.736;2022-11-12T04:23:56;33.60;;;16.40;;
51489;SDS011;57752;53.574;9.736;2022-11-12T04:28:56;39.40;;;19.42;;
51489;SDS011;57752;53.574;9.736;2022-11-12T04:34:15;45.72;;;25.17;;
51489;SDS011;57752;53.574;9.736;2022-11-12T04:39:27;37.05;;;19.73;;
51489;SDS011;57752;53.574;9.736;2022-11-12T04:44:28;53.35;;;27.55;;
51489;SDS011;57752;53.574;9.736;2022-11-12T04:49:47;40.67;;;21.90;;
51489;SDS011;57752;53.574;9.736;2022-11-12T04:54:47;42.85;;;22.90;;
51489;SDS011;57752;53.574;9.736;2022-11-12T04:59:47;51.25;;;26.00;;
51489;SDS011;57752;53.574;9.736;2022-11-12T05:04:48;37.70;;;18.90;;
51489;SDS011;57752;53.574;9.736;2022-11-12T05:09:48;42.63;;;23.30;;
51489;SDS011;57752;53.574;9.736;2022-11-12T05:14:48;39.72;;;19.88;;
51489;SDS011;57752;53.574;9.736;2022-11-12T05:19:49;52.83;;;27.88;;
51489;SDS011;57752;53.574;9.736;2022-11-12T05:24:49;51.70;;;25.48;;
51489;SDS011;57752;53.574;9.736;2022-11-12T05:29:49;33.63;;;17.37;;
51489;SDS011;57752;53.574;9.736;2022-11-12T05:34:49;43.65;;;25.55;;
51489;SDS011;57752;53.574;9.736;2022-11-12T05:39:50;48.08;;;23.67;;
51489;SDS011;57752;53.574;9.736;2022-11-12T05:44:50;40.97;;;20.40;;
51489;SDS011;57752;53.574;9.736;2022-11-12T05:49:50;46.70;;;24.77;;
51489;SDS011;57752;53.574;9.736;2022-11-12T05:54:51;30.60;;;17.23;;
51489;SDS011;57752;53.574;9.736;2022-11-12T05:59:51;46.03;;;23.80;;
51489;SDS011;57752;53.574;9.736;2022-11-12T06:04:51;32.85;;;16.95;;
51489;SDS011;57752;53.574;9.736;2022-11-12T06:09:51;44.30;;;21.20;;
51489;SDS011;57752;53.574;9.736;2022-11-12T06:14:52;42.47;;;21.85;;
51489;SDS011;57752;53.574;9.736;2022-11-12T06:19:52;53.88;;;28.27;;
51489;SDS011;57752;53.574;9.736;2022-11-12T06:24:52;43.33;;;21.75;;
51489;SDS011;57752;53.574;9.736;2022-11-12T06:29:53;34.58;;;17.35;;
51489;SDS011;57752;53.574;9.736;2022-11-12T06:34:53;37.67;;;20.83;;
51489;SDS011;57752;53.574;9.736;2022-11-12T06:39:53;62.93;;;27.83;;
51489;SDS011;57752;53.574;9.736;2022-11-12T06:44:53;40.35;;;20.92;;
51489;SDS011;57752;53.574;9.736;2022-11-12T06:49:54;45.78;;;25.08;;
51489;SDS011;57752;53.574;9.736;2022-11-12T06:54:54;46.80;;;24.70;;
51489;SDS011;57752;53.574;9.736;2022-11-12T06:59:54;56.00;;;29.00;;
51489;SDS011;57752;53.574;9.736;2022-11-12T07:04:55;40.55;;;21.17;;
51489;SDS011;57752;53.574;9.736;2022-11-12T07:09:55;56.77;;;29.03;;
51489;SDS011;57752;53.574;9.736;2022-11-12T07:14:55;52.90;;;28.65;;
51489;SDS011;57752;53.574;9.736;2022-11-12T07:19:55;52.20;;;26.25;;
51489;SDS011;57752;53.574;9.736;2022-11-12T07:24:56;50.22;;;26.98;;
51489;SDS011;57752;53.574;9.736;2022-11-12T07:29:56;51.92;;;25.50;;
51489;SDS011;57752;53.574;9.736;2022-11-12T07:34:56;41.27;;;22.33;;
51489;SDS011;57752;53.574;9.736;2022-11-12T07:39:57;45.78;;;23.25;;
51489;SDS011;57752;53.574;9.736;2022-11-12T07:44:57;38.38;;;18.73;;
51489;SDS011;57752;53.574;9.736;2022-11-12T07:49:57;41.20;;;22.02;;
51489;SDS011;57752;53.574;9.736;2022-11-12T07:54:57;43.13;;;21.23;;
51489;SDS011;57752;53.574;9.736;2022-11-12T07:59:58;46.97;;;23.92;;
51489;SDS011;57752;53.574;9.736;2022-11-12T08:04:58;47.72;;;25.80;;
51489;SDS011;57752;53.574;9.736;2022-11-12T08:09:58;51.97;;;26.10;;
51489;SDS011;57752;53.574;9.736;2022-11-12T08:14:59;42.97;;;23.48;;
51489;SDS011;57752;53.574;9.736;2022-11-12T08:19:59;49.25;;;26.60;;
51489;SDS011;57752;53.574;9.736;2022-11-12T08:24:59;46.67;;;24.43;;
51489;SDS011;57752;53.574;9.736;2022-11-12T08:29:59;42.03;;;22.77;;
51489;SDS011;57752;53.574;9.736;2022-11-12T08:35:00;42.85;;;22.98;;
51489;SDS011;57752;53.574;9.736;2022-11-12T08:40:00;41.70;;;22.42;;
51489;SDS011;57752;53.574;9.736;2022-11-12T08:45:00;40.00;;;21.55;;
51489;SDS011;57752;53.574;9.736;2022-11-12T08:50:01;39.35;;;21.27;;
51489;SDS011;57752;53.574;9.736;2022-11-12T08:55:01;42.22;;;23.02;;
51489;SDS011;57752;53.574;9.736;2022-11-12T09:00:01;39.67;;;21.42;;
51489;SDS011;57752;53.574;9.736;2022-11-12T09:05:02;40.35;;;20.50;;
51489;SDS011;57752;53.574;9.736;2022-11-12T09:10:04;36.25;;;19.52;;
51489;SDS011;57752;53.574;9.736;2022-11-12T09:15:05;31.80;;;15.98;;
51489;SDS011;57752;53.574;9.736;2022-11-12T09:20:06;25.23;;;14.68;;
51489;SDS011;57752;53.574;9.736;2022-11-12T09:25:06;31.38;;;17.42;;
51489;SDS011;57752;53.574;9.736;2022-11-12T09:30:07;28.35;;;15.40;;
51489;SDS011;57752;53.574;9.736;2022-11-12T09:35:07;30.83;;;16.70;;
51489;SDS011;57752;53.574;9.736;2022-11-12T09:40:09;28.70;;;16.08;;
51489;SDS011;57752;53.574;9.736;2022-11-12T09:45:23;28.02;;;15.30;;
51489;SDS011;57752;53.574;9.736;2022-11-12T09:55:31;25.92;;;13.88;;
51489;SDS011;57752;53.574;9.736;2022-11-12T10:00:33;23.85;;;12.95;;
51489;SDS011;57752;53.574;9.736;2022-11-12T10:05:47;25.13;;;13.73;;
51489;SDS011;57752;53.574;9.736;2022-11-12T10:10:58;28.10;;;14.68;;
51489;SDS011;57752;53.574;9.736;2022-11-12T10:16:09;29.27;;;13.93;;
51489;SDS011;57752;53.574;9.736;2022-11-12T10:26:52;23.35;;;12.73;;
51489;SDS011;57752;53.574;9.736;2022-11-12T10:31:56;20.98;;;9.32;;
51489;SDS011;57752;53.574;9.736;2022-11-12T10:36:59;23.83;;;12.55;;
51489;SDS011;57752;53.574;9.736;2022-11-12T10:42:03;23.38;;;13.02;;
51489;SDS011;57752;53.574;9.736;2022-11-12T10:47:18;21.58;;;10.98;;
51489;SDS011;57752;53.574;9.736;2022-11-12T10:52:23;23.35;;;13.30;;
51489;SDS011;57752;53.574;9.736;2022-11-12T10:57:24;26.98;;;13.32;;
51489;SDS011;57752;53.574;9.736;2022-11-12T11:02:25;26.13;;;14.70;;
51489;SDS011;57752;53.574;9.736;2022-11-12T11:07:25;23.33;;;12.98;;
51489;SDS011;57752;53.574;9.736;2022-11-12T11:12:30;22.52;;;12.48;;
51489;SDS011;57752;53.574;9.736;2022-11-12T11:17:32;26.95;;;13.25;;
51489;SDS011;57752;53.574;9.736;2022-11-12T11:22:43;27.33;;;14.65;;
51489;SDS011;57752;53.574;9.736;2022-11-12T11:27:58;25.42;;;13.77;;
51489;SDS011;57752;53.574;9.736;2022-11-12T11:33:08;23.77;;;11.77;;
51489;SDS011;57752;53.574;9.736;2022-11-12T11:48:38;21.73;;;10.90;;
51489;SDS011;57752;53.574;9.736;2022-11-12T11:54:12;24.38;;;12.85;;
51489;SDS011;57752;53.574;9.736;2022-11-12T12:10:40;23.92;;;12.02;;
51489;SDS011;57752;53.574;9.736;2022-11-12T12:15:49;21.92;;;11.10;;
51489;SDS011;57752;53.574;9.736;2022-11-12T12:26:19;20.83;;;10.27;;
51489;SDS011;57752;53.574;9.736;2022-11-12T12:31:51;23.30;;;11.73;;
51489;SDS011;57752;53.574;9.736;2022-11-12T12:37:30;21.60;;;10.20;;
51489;SDS011;57752;53.574;9.736;2022-11-12T12:42:25;25.00;;;11.80;;
51489;SDS011;57752;53.574;9.736;2022-11-12T12:47:34;16.77;;;7.72;;
51489;SDS011;57752;53.574;9.736;2022-11-12T12:58:00;22.98;;;11.05;;
51489;SDS011;57752;53.574;9.736;2022-11-12T13:03:00;21.95;;;10.15;;
51489;SDS011;57752;53.574;9.736;2022-11-12T13:08:05;22.20;;;11.00;;
51489;SDS011;57752;53.574;9.736;2022-11-12T13:34:30;21.48;;;9.77;;
51489;SDS011;57752;53.574;9.736;2022-11-12T13:44:33;18.90;;;8.40;;
51489;SDS011;57752;53.574;9.736;2022-11-12T13:49:34;19.92;;;9.73;;
51489;SDS011;57752;53.574;9.736;2022-11-12T13:54:35;14.43;;;6.57;;
51489;SDS011;57752;53.574;9.736;2022-11-12T13:59:36;20.30;;;8.47;;
51489;SDS011;57752;53.574;9.736;2022-11-12T14:04:36;19.13;;;9.33;;
51489;SDS011;57752;53.574;9.736;2022-11-12T14:20:19;20.23;;;9.00;;
51489;SDS011;57752;53.574;9.736;2022-11-12T14:25:26;18.05;;;9.75;;
51489;SDS011;57752;53.574;9.736;2022-11-12T14:30:28;19.80;;;8.93;;
51489;SDS011;57752;53.574;9.736;2022-11-12T14:35:37;17.77;;;8.07;;
51489;SDS011;57752;53.574;9.736;2022-11-12T14:40:42;17.02;;;8.10;;
51489;SDS011;57752;53.574;9.736;2022-11-12T14:45:51;16.38;;;7.85;;
51489;SDS011;57752;53.574;9.736;2022-11-12T14:51:03;19.98;;;9.70;;
51489;SDS011;57752;53.574;9.736;2022-11-12T14:56:06;22.75;;;11.50;;
51489;SDS011;57752;53.574;9.736;2022-11-12T15:01:22;19.13;;;9.43;;
51489;SDS011;57752;53.574;9.736;2022-11-12T15:06:31;23.02;;;10.75;;
51489;SDS011;57752;53.574;9.736;2022-11-12T15:11:34;22.07;;;11.17;;
51489;SDS011;57752;53.574;9.736;2022-11-12T15:16:41;22.50;;;11.73;;
51489;SDS011;57752;53.574;9.736;2022-11-12T15:21:49;20.90;;;10.77;;
51489;SDS011;57752;53.574;9.736;2022-11-12T15:26:51;22.23;;;10.32;;
51489;SDS011;57752;53.574;9.736;2022-11-12T15:31:54;21.70;;;9.73;;
51489;SDS011;57752;53.574;9.736;2022-11-12T15:36:54;24.47;;;11.83;;
51489;SDS011;57752;53.574;9.736;2022-11-12T15:41:59;30.98;;;13.60;;
51489;SDS011;57752;53.574;9.736;2022-11-12T15:47:01;20.75;;;10.10;;
51489;SDS011;57752;53.574;9.736;2022-11-12T15:52:02;20.50;;;10.13;;
51489;SDS011;57752;53.574;9.736;2022-11-12T15:57:03;23.40;;;11.10;;
51489;SDS011;57752;53.574;9.736;2022-11-12T16:02:07;32.83;;;14.07;;
51489;SDS011;57752;53.574;9.736;2022-11-12T16:07:09;29.02;;;15.27;;
51489;SDS011;57752;53.574;9.736;2022-11-12T16:12:10;31.45;;;15.32;;
51489;SDS011;57752;53.574;9.736;2022-11-12T16:17:13;27.70;;;14.43;;
51489;SDS011;57752;53.574;9.736;2022-11-12T16:22:14;21.65;;;10.10;;
51489;SDS011;57752;53.574;9.736;2022-11-12T16:27:15;28.65;;;13.02;;
51489;SDS011;57752;53.574;9.736;2022-11-12T16:32:16;32.47;;;16.77;;
51489;SDS011;57752;53.574;9.736;2022-11-12T16:37:16;26.30;;;14.10;;
51489;SDS011;57752;53.574;9.736;2022-11-12T16:42:17;32.88;;;18.23;;
51489;SDS011;57752;53.574;9.736;2022-11-12T16:47:17;36.58;;;19.80;;
51489;SDS011;57752;53.574;9.736;2022-11-12T16:52:17;37.88;;;21.75;;
51489;SDS011;57752;53.574;9.736;2022-11-12T16:57:17;53.65;;;28.45;;
51489;SDS011;57752;53.574;9.736;2022-11-12T17:02:18;43.03;;;26.58;;
51489;SDS011;57752;53.574;9.736;2022-11-12T17:07:18;38.42;;;20.48;;
51489;SDS011;57752;53.574;9.736;2022-11-12T17:12:18;36.03;;;19.93;;
51489;SDS011;57752;53.574;9.736;2022-11-12T17:17:19;34.67;;;19.92;;
51489;SDS011;57752;53.574;9.736;2022-11-12T17:22:19;43.50;;;22.42;;
51489;SDS011;57752;53.574;9.736;2022-11-12T17:27:19;33.50;;;17.80;;
51489;SDS011;57752;53.574;9.736;2022-11-12T17:32:20;28.85;;;13.98;;
51489;SDS011;57752;53.574;9.736;2022-11-12T17:37:20;29.70;;;17.30;;
51489;SDS011;57752;53.574;9.736;2022-11-12T17:42:20;28.52;;;14.45;;
51489;SDS011;57752;53.574;9.736;2022-11-12T17:47:21;30.50;;;15.93;;
51489;SDS011;57752;53.574;9.736;2022-11-12T17:52:21;36.42;;;17.63;;
51489;SDS011;57752;53.574;9.736;2022-11-12T17:57:21;36.30;;;22.20;;
51489;SDS011;57752;53.574;9.736;2022-11-12T18:02:21;50.25;;;28.42;;
51489;SDS011;57752;53.574;9.736;2022-11-12T18:07:22;52.20;;;29.80;;
51489;SDS011;57752;53.574;9.736;2022-11-12T18:12:22;54.72;;;28.77;;
51489;SDS011;57752;53.574;9.736;2022-11-12T18:17:22;53.50;;;27.33;;
51489;SDS011;57752;53.574;9.736;2022-11-12T18:22:23;42.30;;;22.30;;
51489;SDS011;57752;53.574;9.736;2022-11-12T18:27:23;57.70;;;30.02;;
51489;SDS011;57752;53.574;9.736;2022-11-12T18:32:23;47.33;;;25.17;;
51489;SDS011;57752;53.574;9.736;2022-11-12T18:37:24;52.33;;;24.90;;
51489;SDS011;57752;53.574;9.736;2022-11-12T18:42:24;46.63;;;22.52;;
51489;SDS011;57752;53.574;9.736;2022-11-12T18:47:24;38.38;;;20.67;;
51489;SDS011;57752;53.574;9.736;2022-11-12T18:52:25;41.27;;;20.93;;
51489;SDS011;57752;53.574;9.736;2022-11-12T18:57:25;36.08;;;19.13;;
51489;SDS011;57752;53.574;9.736;2022-11-12T19:02:25;32.10;;;16.88;;
51489;SDS011;57752;53.574;9.736;2022-11-12T19:07:26;37.13;;;19.58;;
51489;SDS011;57752;53.574;9.736;2022-11-12T19:12:26;35.25;;;19.38;;
51489;SDS011;57752;53.574;9.736;2022-11-12T19:17:27;26.52;;;15.23;;
51489;SDS011;57752;53.574;9.736;2022-11-12T19:22:28;35.80;;;18.52;;
51489;SDS011;57752;53.574;9.736;2022-11-12T19:27:28;36.03;;;18.48;;
51489;SDS011;57752;53.574;9.736;2022-11-12T19:32:28;38.50;;;18.70;;
51489;SDS011;57752;53.574;9.736;2022-11-12T19:37:31;33.13;;;18.05;;
51489;SDS011;57752;53.574;9.736;2022-11-12T19:42:31;35.17;;;18.77;;
51489;SDS011;57752;53.574;9.736;2022-11-12T19:47:32;39.33;;;19.23;;
51489;SDS011;57752;53.574;9.736;2022-11-12T19:52:32;37.97;;;19.70;;
51489;SDS011;57752;53.574;9.736;2022-11-12T19:57:32;38.28;;;17.48;;
51489;SDS011;57752;53.574;9.736;2022-11-12T20:02:33;40.17;;;18.92;;
51489;SDS011;57752;53.574;9.736;2022-11-12T20:07:34;32.53;;;17.67;;
51489;SDS011;57752;53.574;9.736;2022-11-12T20:12:34;32.83;;;17.23;;
51489;SDS011;57752;53.574;9.736;2022-11-12T20:17:35;31.67;;;16.73;;
51489;SDS011;57752;53.574;9.736;2022-11-12T20:22:38;33.72;;;17.60;;
51489;SDS011;57752;53.574;9.736;2022-11-12T20:27:38;36.03;;;19.02;;
51489;SDS011;57752;53.574;9.736;2022-11-12T20:32:39;38.90;;;18.63;;
51489;SDS011;57752;53.574;9.736;2022-11-12T20:37:39;39.75;;;19.25;;
51489;SDS011;57752;53.574;9.736;2022-11-12T20:42:39;39.22;;;18.30;;
51489;SDS011;57752;53.574;9.736;2022-11-12T20:47:40;32.22;;;16.63;;
51489;SDS011;57752;53.574;9.736;2022-11-12T20:52:40;37.27;;;20.53;;
51489;SDS011;57752;53.574;9.736;2022-11-12T20:57:41;36.65;;;19.60;;
51489;SDS011;57752;53.574;9.736;2022-11-12T21:02:41;32.83;;;18.98;;
51489;SDS011;57752;53.574;9.736;2022-11-12T21:07:41;33.47;;;17.60;;
51489;SDS011;57752;53.574;9.736;2022-11-12T21:12:41;32.60;;;17.13;;
51489;SDS011;57752;53.574;9.736;2022-11-12T21:17:42;28.83;;;16.00;;
51489;SDS011;57752;53.574;9.736;2022-11-12T21:22:42;33.40;;;17.52;;
51489;SDS011;57752;53.574;9.736;2022-11-12T21:27:42;26.55;;;15.13;;
51489;SDS011;57752;53.574;9.736;2022-11-12T21:32:43;30.20;;;15.15;;
51489;SDS011;57752;53.574;9.736;2022-11-12T21:37:43;30.95;;;17.08;;
51489;SDS011;57752;53.574;9.736;2022-11-12T21:42:43;34.00;;;17.80;;
51489;SDS011;57752;53.574;9.736;2022-11-12T21:47:44;25.13;;;13.90;;
51489;SDS011;57752;53.574;9.736;2022-11-12T21:52:44;29.83;;;16.25;;
51489;SDS011;57752;53.574;9.736;2022-11-12T21:57:44;36.13;;;17.80;;
51489;SDS011;57752;53.574;9.736;2022-11-12T22:02:45;36.42;;;18.05;;
51489;SDS011;57752;53.574;9.736;2022-11-12T22:07:45;35.83;;;17.77;;
51489;SDS011;57752;53.574;9.736;2022-11-12T22:12:45;30.77;;;17.30;;
51489;SDS011;57752;53.574;9.736;2022-11-12T22:17:46;38.88;;;20.52;;
51489;SDS011;57752;53.574;9.736;2022-11-12T22:22:46;48.95;;;29.05;;
51489;SDS011;57752;53.574;9.736;2022-11-12T22:27:46;47.38;;;27.60;;
51489;SDS011;57752;53.574;9.736;2022-11-12T22:32:46;53.75;;;30.05;;
51489;SDS011;57752;53.574;9.736;2022-11-12T22:37:47;48.63;;;26.52;;
51489;SDS011;57752;53.574;9.736;2022-11-12T22:42:47;54.60;;;31.88;;
51489;SDS011;57752;53.574;9.736;2022-11-12T22:47:47;64.13;;;37.97;;
51489;SDS011;57752;53.574;9.736;2022-11-12T22:52:47;68.57;;;36.10;;
51489;SDS011;57752;53.574;9.736;2022-11-12T22:57:48;67.30;;;38.27;;
51489;SDS011;57752;53.574;9.736;2022-11-12T23:02:48;60.67;;;34.77;;
51489;SDS011;57752;53.574;9.736;2022-11-12T23:07:48;52.63;;;27.13;;
51489;SDS011;57752;53.574;9.736;2022-11-12T23:12:49;58.20;;;31.85;;
51489;SDS011;57752;53.574;9.736;2022-11-12T23:17:49;71.63;;;38.33;;
51489;SDS011;57752;53.574;9.736;2022-11-12T23:22:50;45.72;;;28.23;;
51489;SDS011;57752;53.574;9.736;2022-11-12T23:27:50;45.70;;;25.48;;
51489;SDS011;57752;53.574;9.736;2022-11-12T23:32:51;43.17;;;23.40;;
51489;SDS011;57752;53.574;9.736;2022-11-12T23:37:51;35.38;;;20.95;;
51489;SDS011;57752;53.574;9.736;2022-11-12T23:42:52;49.08;;;26.67;;
51489;SDS011;57752;53.574;9.736;2022-11-12T23:47:52;46.40;;;26.20;;
51489;SDS011;57752;53.574;9.736;2022-11-12T23:52:54;39.00;;;20.53;;
51489;SDS011;57752;53.574;9.736;2022-11-12T23:57:55;47.05;;;27.50;;
